createdAt,value
2018-08-31T00:00:02.471Z,931.25
2018-08-31T00:01:02.463Z,931.27
2018-08-31T00:02:02.600Z,931.26
2018-08-31T00:03:02.618Z,931.25
2018-08-31T00:04:02.559Z,931.23
2018-08-31T00:05:02.521Z,931.23
2018-08-31T00:06:02.665Z,931.22
2018-08-31T00:07:02.553Z,931.21
2018-08-31T00:08:02.720Z,931.25
2018-08-31T00:09:02.710Z,931.23
2018-08-31T00:10:02.597Z,931.28
2018-08-31T00:11:02.733Z,931.29
2018-08-31T00:12:02.751Z,931.27
2018-08-31T00:13:02.960Z,931.31
2018-08-31T00:14:02.656Z,931.32
2018-08-31T00:15:02.682Z,931.29
2018-08-31T00:16:02.690Z,931.29
2018-08-31T00:17:02.701Z,931.31
2018-08-31T00:18:07.471Z,931.33
2018-08-31T00:19:02.851Z,931.32
2018-08-31T00:20:02.745Z,931.33
2018-08-31T00:21:02.768Z,931.32
2018-08-31T00:22:02.899Z,931.36
2018-08-31T00:23:02.788Z,931.35
2018-08-31T00:24:03.126Z,931.34
2018-08-31T00:25:02.949Z,931.33
2018-08-31T00:26:02.957Z,931.35
2018-08-31T00:27:02.848Z,931.36
2018-08-31T00:28:02.858Z,931.35
2018-08-31T00:29:03.022Z,931.32
2018-08-31T00:30:02.891Z,931.34
2018-08-31T00:31:03.025Z,931.33
2018-08-31T00:32:02.913Z,931.29
2018-08-31T00:33:03.054Z,931.29
2018-08-31T00:34:03.273Z,931.30
2018-08-31T00:35:03.086Z,931.30
2018-08-31T00:36:02.983Z,931.33
2018-08-31T00:37:03.117Z,931.32
2018-08-31T00:38:03.002Z,931.34
2018-08-31T00:39:03.128Z,931.33
2018-08-31T00:40:03.041Z,931.32
2018-08-31T00:41:03.173Z,931.31
2018-08-31T00:42:03.060Z,931.31
2018-08-31T00:44:03.213Z,931.36
2018-08-31T00:45:03.337Z,931.36
2018-08-31T00:46:03.252Z,931.38
2018-08-31T00:47:03.257Z,931.34
2018-08-31T00:48:03.270Z,931.38
2018-08-31T00:49:03.172Z,931.38
2018-08-31T00:50:03.286Z,931.38
2018-08-31T00:51:03.192Z,931.38
2018-08-31T00:52:03.209Z,931.37
2018-08-31T00:53:03.232Z,931.40
2018-08-31T00:54:03.359Z,931.36
2018-08-31T00:55:03.533Z,931.38
2018-08-31T00:56:03.388Z,931.40
2018-08-31T00:57:03.402Z,931.37
2018-08-31T00:58:03.295Z,931.38
2018-08-31T00:59:03.436Z,931.41
2018-08-31T01:00:03.463Z,931.40
2018-08-31T01:01:03.341Z,931.40
2018-08-31T01:02:03.477Z,931.41
2018-08-31T01:03:03.380Z,931.45
2018-08-31T01:04:03.379Z,931.41
2018-08-31T01:05:03.546Z,931.47
2018-08-31T01:06:03.403Z,931.46
2018-08-31T01:07:03.417Z,931.44
2018-08-31T01:08:03.433Z,931.43
2018-08-31T01:09:03.448Z,931.35
2018-08-31T01:10:03.606Z,931.38
2018-08-31T01:11:03.605Z,931.37
2018-08-31T01:12:03.489Z,931.36
2018-08-31T01:13:03.627Z,931.37
2018-08-31T01:14:03.648Z,931.34
2018-08-31T01:15:03.717Z,931.35
2018-08-31T01:16:03.673Z,931.34
2018-08-31T01:17:03.708Z,931.37
2018-08-31T01:18:03.583Z,931.33
2018-08-31T01:19:03.606Z,931.35
2018-08-31T01:20:03.732Z,931.33
2018-08-31T01:21:03.622Z,931.32
2018-08-31T01:22:03.682Z,931.33
2018-08-31T01:23:03.651Z,931.35
2018-08-31T01:24:03.935Z,931.35
2018-08-31T01:25:03.800Z,931.38
2018-08-31T01:26:03.816Z,931.39
2018-08-31T01:27:03.696Z,931.36
2018-08-31T01:28:03.724Z,931.37
2018-08-31T01:29:03.932Z,931.43
2018-08-31T01:30:03.873Z,931.43
2018-08-31T01:31:03.755Z,931.46
2018-08-31T01:32:03.902Z,931.42
2018-08-31T01:33:03.787Z,931.41
2018-08-31T01:34:03.902Z,931.41
2018-08-31T01:35:03.941Z,931.43
2018-08-31T01:36:03.955Z,931.48
2018-08-31T01:37:03.967Z,931.43
2018-08-31T01:38:03.990Z,931.47
2018-08-31T01:39:03.923Z,931.47
2018-08-31T01:40:04.013Z,931.51
2018-08-31T01:41:03.909Z,931.53
2018-08-31T01:42:03.967Z,931.56
2018-08-31T01:43:03.972Z,931.54
2018-08-31T01:44:04.066Z,931.55
2018-08-31T01:45:03.960Z,931.54
2018-08-31T01:46:03.965Z,931.53
2018-08-31T01:47:04.182Z,931.53
2018-08-31T01:48:04.121Z,931.55
2018-08-31T01:49:04.136Z,931.51
2018-08-31T01:50:04.156Z,931.55
2018-08-31T01:51:04.042Z,931.55
2018-08-31T01:52:04.264Z,931.55
2018-08-31T01:53:04.193Z,931.52
2018-08-31T01:54:04.082Z,931.52
2018-08-31T01:55:04.224Z,931.48
2018-08-31T01:56:04.234Z,931.50
2018-08-31T01:57:04.254Z,931.52
2018-08-31T01:58:04.199Z,931.49
2018-08-31T01:59:04.303Z,931.50
2018-08-31T02:00:04.300Z,931.48
2018-08-31T02:01:04.179Z,931.53
2018-08-31T02:02:04.200Z,931.52
2018-08-31T02:03:04.337Z,931.50
2018-08-31T02:04:04.365Z,931.50
2018-08-31T02:05:04.244Z,931.49
2018-08-31T02:06:04.384Z,931.46
2018-08-31T02:07:04.273Z,931.53
2018-08-31T02:08:04.405Z,931.49
2018-08-31T02:09:04.447Z,931.52
2018-08-31T02:10:04.308Z,931.50
2018-08-31T02:11:04.313Z,931.45
2018-08-31T02:12:04.456Z,931.48
2018-08-31T02:13:04.346Z,931.48
2018-08-31T02:14:04.685Z,931.46
2018-08-31T02:15:04.375Z,931.51
2018-08-31T02:16:04.391Z,931.47
2018-08-31T02:17:04.404Z,931.48
2018-08-31T02:18:04.426Z,931.51
2018-08-31T02:19:04.533Z,931.53
2018-08-31T02:20:04.453Z,931.50
2018-08-31T02:21:04.463Z,931.48
2018-08-31T02:22:04.468Z,931.49
2018-08-31T02:23:04.610Z,931.46
2018-08-31T02:24:04.700Z,931.44
2018-08-31T02:25:04.637Z,931.44
2018-08-31T02:26:04.652Z,931.46
2018-08-31T02:27:04.664Z,931.46
2018-08-31T02:28:04.684Z,931.46
2018-08-31T02:29:04.842Z,931.44
2018-08-31T02:30:04.712Z,931.43
2018-08-31T02:31:04.719Z,931.40
2018-08-31T02:32:04.734Z,931.46
2018-08-31T02:33:04.616Z,931.42
2018-08-31T02:34:04.852Z,931.39
2018-08-31T02:35:04.649Z,931.39
2018-08-31T02:36:04.676Z,931.45
2018-08-31T02:37:04.681Z,931.41
2018-08-31T02:38:04.703Z,931.44
2018-08-31T02:39:04.899Z,931.47
2018-08-31T02:40:04.844Z,931.45
2018-08-31T02:41:04.862Z,931.44
2018-08-31T02:42:04.870Z,931.45
2018-08-31T02:43:04.886Z,931.48
2018-08-31T02:44:05.096Z,931.45
2018-08-31T02:45:04.912Z,931.46
2018-08-31T02:46:04.801Z,931.43
2018-08-31T02:47:04.938Z,931.45
2018-08-31T02:48:04.951Z,931.46
2018-08-31T02:49:05.047Z,931.43
2018-08-31T02:50:04.867Z,931.44
2018-08-31T02:51:04.999Z,931.45
2018-08-31T02:52:05.013Z,931.45
2018-08-31T02:53:05.023Z,931.43
2018-08-31T02:54:05.054Z,931.47
2018-08-31T02:55:04.930Z,931.44
2018-08-31T02:56:05.060Z,931.47
2018-08-31T02:57:04.956Z,931.46
2018-08-31T02:58:05.089Z,931.49
2018-08-31T02:59:05.251Z,931.43
2018-08-31T03:00:04.995Z,931.42
2018-08-31T03:01:05.032Z,931.40
2018-08-31T03:02:05.043Z,931.40
2018-08-31T03:03:05.055Z,931.41
2018-08-31T03:04:05.210Z,931.43
2018-08-31T03:05:05.187Z,931.42
2018-08-31T03:06:05.195Z,931.41
2018-08-31T03:07:05.079Z,931.40
2018-08-31T03:08:05.093Z,931.42
2018-08-31T03:09:05.209Z,931.42
2018-08-31T03:10:05.138Z,931.38
2018-08-31T03:11:05.140Z,931.39
2018-08-31T03:12:05.276Z,931.37
2018-08-31T03:13:05.294Z,931.35
2018-08-31T03:14:05.372Z,931.33
2018-08-31T03:15:05.185Z,931.35
2018-08-31T03:16:05.218Z,931.35
2018-08-31T03:17:05.346Z,931.35
2018-08-31T03:18:05.244Z,931.35
2018-08-31T03:19:05.395Z,931.30
2018-08-31T03:20:05.263Z,931.31
2018-08-31T03:21:05.289Z,931.27
2018-08-31T03:22:05.411Z,931.30
2018-08-31T03:23:05.300Z,931.31
2018-08-31T03:24:05.488Z,931.31
2018-08-31T03:25:05.454Z,931.29
2018-08-31T03:26:05.465Z,931.29
2018-08-31T03:27:05.359Z,931.29
2018-08-31T03:28:05.592Z,931.30
2018-08-31T03:29:05.510Z,931.28
2018-08-31T03:30:05.392Z,931.29
2018-08-31T03:31:05.417Z,931.29
2018-08-31T03:32:05.427Z,931.24
2018-08-31T03:33:05.588Z,931.25
2018-08-31T03:34:05.454Z,931.24
2018-08-31T03:35:05.585Z,931.27
2018-08-31T03:36:05.465Z,931.27
2018-08-31T03:37:05.634Z,931.27
2018-08-31T03:38:05.667Z,931.30
2018-08-31T03:39:05.528Z,931.25
2018-08-31T03:40:05.534Z,931.25
2018-08-31T03:41:05.666Z,931.29
2018-08-31T03:42:05.566Z,931.28
2018-08-31T03:43:05.623Z,931.34
2018-08-31T03:44:05.743Z,931.29
2018-08-31T03:45:05.725Z,931.29
2018-08-31T03:46:05.602Z,931.30
2018-08-31T03:47:05.618Z,931.27
2018-08-31T03:48:05.627Z,931.32
2018-08-31T03:49:05.845Z,931.32
2018-08-31T03:50:05.783Z,931.28
2018-08-31T03:51:05.805Z,931.28
2018-08-31T03:52:05.812Z,931.27
2018-08-31T03:53:05.707Z,931.26
2018-08-31T03:54:05.859Z,931.22
2018-08-31T03:55:05.859Z,931.20
2018-08-31T03:56:05.867Z,931.18
2018-08-31T03:57:05.752Z,931.18
2018-08-31T03:58:05.765Z,931.15
2018-08-31T03:59:05.996Z,931.15
2018-08-31T04:00:05.919Z,931.13
2018-08-31T04:01:05.935Z,931.16
2018-08-31T04:02:05.949Z,931.12
2018-08-31T04:03:05.958Z,931.14
2018-08-31T04:04:06.000Z,931.10
2018-08-31T04:05:05.982Z,931.11
2018-08-31T04:06:05.875Z,931.12
2018-08-31T04:07:05.908Z,931.08
2018-08-31T04:08:06.029Z,931.07
2018-08-31T04:09:06.067Z,931.05
2018-08-31T04:10:05.926Z,931.01
2018-08-31T04:11:06.062Z,931.04
2018-08-31T04:12:05.957Z,931.01
2018-08-31T04:13:05.970Z,931.02
2018-08-31T04:14:06.077Z,930.99
2018-08-31T04:15:06.129Z,931.04
2018-08-31T04:16:06.126Z,931.00
2018-08-31T04:17:06.141Z,930.96
2018-08-31T04:18:06.157Z,931.00
2018-08-31T04:19:06.046Z,931.01
2018-08-31T04:20:06.283Z,930.95
2018-08-31T04:21:06.077Z,930.94
2018-08-31T04:22:06.078Z,930.91
2018-08-31T04:23:06.093Z,930.91
2018-08-31T04:24:06.129Z,930.87
2018-08-31T04:25:06.279Z,930.81
2018-08-31T04:26:06.258Z,930.84
2018-08-31T04:27:06.146Z,930.81
2018-08-31T04:28:06.160Z,930.82
2018-08-31T04:29:06.180Z,930.78
2018-08-31T04:30:06.461Z,930.75
2018-08-31T04:31:06.324Z,930.76
2018-08-31T04:32:06.342Z,930.74
2018-08-31T04:33:06.349Z,930.73
2018-08-31T04:34:06.312Z,930.74
2018-08-31T04:35:06.540Z,930.75
2018-08-31T04:36:06.271Z,930.71
2018-08-31T04:37:06.401Z,930.70
2018-08-31T04:38:06.285Z,930.70
2018-08-31T04:39:06.429Z,930.70
2018-08-31T04:40:06.465Z,930.67
2018-08-31T04:41:06.463Z,930.67
2018-08-31T04:42:06.469Z,930.61
2018-08-31T04:43:06.357Z,930.63
2018-08-31T04:44:06.494Z,930.59
2018-08-31T04:45:06.656Z,930.58
2018-08-31T04:46:06.397Z,930.57
2018-08-31T04:47:06.535Z,930.56
2018-08-31T04:48:06.426Z,930.49
2018-08-31T04:49:06.442Z,930.53
2018-08-31T04:50:06.533Z,930.49
2018-08-31T04:51:06.472Z,930.52
2018-08-31T04:52:06.479Z,930.51
2018-08-31T04:53:06.759Z,930.55
2018-08-31T04:54:06.487Z,930.52
2018-08-31T04:55:06.510Z,930.54
2018-08-31T04:56:06.647Z,930.51
2018-08-31T04:57:06.547Z,930.52
2018-08-31T04:58:06.691Z,930.52
2018-08-31T04:59:06.567Z,930.48
2018-08-31T05:00:06.577Z,930.45
2018-08-31T05:01:06.715Z,930.45
2018-08-31T05:02:06.599Z,930.46
2018-08-31T05:03:06.792Z,930.46
2018-08-31T05:04:06.753Z,930.46
2018-08-31T05:05:06.642Z,930.43
2018-08-31T05:06:07.076Z,930.45
2018-08-31T05:07:06.791Z,930.47
2018-08-31T05:08:06.686Z,930.43
2018-08-31T05:09:06.814Z,930.44
2018-08-31T05:10:06.831Z,930.43
2018-08-31T05:11:06.839Z,930.40
2018-08-31T05:12:06.868Z,930.39
2018-08-31T05:13:06.864Z,930.39
2018-08-31T05:14:06.760Z,930.35
2018-08-31T05:15:06.771Z,930.32
2018-08-31T05:16:06.856Z,930.31
2018-08-31T05:17:06.914Z,930.25
2018-08-31T05:18:06.817Z,930.23
2018-08-31T05:19:06.809Z,930.23
2018-08-31T05:20:06.849Z,930.21
2018-08-31T05:21:06.859Z,930.16
2018-08-31T05:22:07.131Z,930.17
2018-08-31T05:23:06.898Z,930.17
2018-08-31T05:24:06.884Z,930.13
2018-08-31T05:25:06.895Z,930.15
2018-08-31T05:26:07.036Z,930.13
2018-08-31T05:27:07.025Z,930.12
2018-08-31T05:28:06.946Z,930.10
2018-08-31T05:29:07.068Z,930.06
2018-08-31T05:30:06.955Z,930.05
2018-08-31T05:31:06.971Z,930.02
2018-08-31T05:32:07.160Z,930.02
2018-08-31T05:33:07.125Z,930.03
2018-08-31T05:34:07.026Z,930.00
2018-08-31T05:35:07.036Z,930.02
2018-08-31T05:36:07.034Z,930.00
2018-08-31T05:37:07.201Z,929.96
2018-08-31T05:38:07.072Z,929.98
2018-08-31T05:39:07.196Z,929.99
2018-08-31T05:40:07.082Z,929.94
2018-08-31T05:41:07.090Z,929.93
2018-08-31T05:42:07.285Z,929.95
2018-08-31T05:43:07.251Z,929.93
2018-08-31T05:44:07.144Z,929.93
2018-08-31T05:45:07.154Z,929.91
2018-08-31T05:46:07.170Z,929.91
2018-08-31T05:47:07.222Z,929.90
2018-08-31T05:48:07.308Z,929.88
2018-08-31T05:49:07.322Z,929.91
2018-08-31T05:50:07.252Z,929.88
2018-08-31T05:51:07.221Z,929.87
2018-08-31T05:52:07.358Z,929.86
2018-08-31T05:53:07.258Z,929.86
2018-08-31T05:54:07.384Z,929.88
2018-08-31T05:55:07.386Z,929.88
2018-08-31T05:56:07.411Z,929.88
2018-08-31T05:57:07.306Z,929.90
2018-08-31T05:58:07.440Z,929.91
2018-08-31T05:59:07.330Z,929.89
2018-08-31T06:00:07.501Z,929.92
2018-08-31T06:01:07.354Z,929.90
2018-08-31T06:02:07.370Z,929.94
2018-08-31T06:03:07.496Z,929.93
2018-08-31T06:04:07.509Z,929.92
2018-08-31T06:05:07.673Z,929.92
2018-08-31T06:06:07.533Z,929.94
2018-08-31T06:07:07.425Z,929.94
2018-08-31T06:08:07.560Z,929.94
2018-08-31T06:09:07.572Z,929.88
2018-08-31T06:10:07.621Z,929.88
2018-08-31T06:11:07.480Z,929.88
2018-08-31T06:12:07.499Z,929.89
2018-08-31T06:13:07.503Z,929.90
2018-08-31T06:14:07.513Z,929.87
2018-08-31T06:15:07.801Z,929.88
2018-08-31T06:16:07.658Z,929.90
2018-08-31T06:17:07.549Z,929.88
2018-08-31T06:18:07.619Z,929.88
2018-08-31T06:19:07.583Z,929.82
2018-08-31T06:20:07.643Z,929.82
2018-08-31T06:21:07.800Z,929.83
2018-08-31T06:22:07.619Z,929.80
2018-08-31T06:23:07.622Z,929.84
2018-08-31T06:24:07.764Z,929.84
2018-08-31T06:25:07.651Z,929.82
2018-08-31T06:26:07.934Z,929.78
2018-08-31T06:27:07.773Z,929.82
2018-08-31T06:28:07.812Z,929.83
2018-08-31T06:29:07.821Z,929.84
2018-08-31T06:30:07.834Z,929.83
2018-08-31T06:31:07.945Z,929.88
2018-08-31T06:32:07.858Z,929.86
2018-08-31T06:33:07.757Z,929.88
2018-08-31T06:34:07.766Z,929.84
2018-08-31T06:35:07.780Z,929.87
2018-08-31T06:36:08.010Z,929.89
2018-08-31T06:37:07.790Z,929.83
2018-08-31T06:38:07.812Z,929.84
2018-08-31T06:39:07.833Z,929.80
2018-08-31T06:40:07.957Z,929.77
2018-08-31T06:41:08.041Z,929.82
2018-08-31T06:42:07.864Z,929.75
2018-08-31T06:43:07.869Z,929.76
2018-08-31T06:44:08.016Z,929.76
2018-08-31T06:45:08.022Z,929.73
2018-08-31T06:46:08.057Z,929.70
2018-08-31T06:47:07.918Z,929.70
2018-08-31T06:48:07.945Z,929.70
2018-08-31T06:49:08.067Z,929.69
2018-08-31T06:50:07.950Z,929.69
2018-08-31T06:51:08.181Z,929.70
2018-08-31T06:52:08.110Z,929.67
2018-08-31T06:53:08.004Z,929.68
2018-08-31T06:54:08.016Z,929.67
2018-08-31T06:55:08.147Z,929.67
2018-08-31T06:56:08.161Z,929.71
2018-08-31T06:57:08.158Z,929.65
2018-08-31T06:58:08.181Z,929.71
2018-08-31T06:59:08.069Z,929.72
2018-08-31T07:00:08.202Z,929.69
2018-08-31T07:01:08.087Z,929.73
2018-08-31T07:02:08.230Z,929.71
2018-08-31T07:03:08.391Z,929.73
2018-08-31T07:04:08.253Z,929.75
2018-08-31T07:05:08.275Z,929.78
2018-08-31T07:06:08.156Z,929.80
2018-08-31T07:07:08.295Z,929.81
2018-08-31T07:08:08.356Z,929.82
2018-08-31T07:09:08.205Z,929.78
2018-08-31T07:10:08.198Z,929.79
2018-08-31T07:11:08.343Z,929.80
2018-08-31T07:12:08.280Z,929.78
2018-08-31T07:13:08.519Z,929.78
2018-08-31T07:14:08.376Z,929.80
2018-08-31T07:15:08.387Z,929.83
2018-08-31T07:16:08.404Z,929.81
2018-08-31T07:17:08.286Z,929.79
2018-08-31T07:18:08.462Z,929.77
2018-08-31T07:19:08.311Z,929.75
2018-08-31T07:20:08.452Z,929.77
2018-08-31T07:21:08.462Z,929.77
2018-08-31T07:22:08.349Z,929.76
2018-08-31T07:23:08.514Z,929.75
2018-08-31T07:24:08.374Z,929.74
2018-08-31T07:25:08.378Z,929.77
2018-08-31T07:26:08.542Z,929.76
2018-08-31T07:27:08.535Z,929.71
2018-08-31T07:28:08.696Z,929.75
2018-08-31T07:29:08.558Z,929.71
2018-08-31T07:30:08.456Z,929.75
2018-08-31T07:31:08.585Z,929.72
2018-08-31T07:32:08.512Z,929.73
2018-08-31T07:33:08.577Z,929.73
2018-08-31T07:34:08.498Z,929.77
2018-08-31T07:35:08.641Z,929.76
2018-08-31T07:36:08.654Z,929.75
2018-08-31T07:37:08.544Z,929.83
2018-08-31T07:38:08.768Z,929.82
2018-08-31T07:39:08.685Z,929.81
2018-08-31T07:40:08.691Z,929.80
2018-08-31T07:41:08.704Z,929.83
2018-08-31T07:42:08.716Z,929.80
2018-08-31T07:43:08.780Z,929.79
2018-08-31T07:44:08.741Z,929.77
2018-08-31T07:45:08.772Z,929.80
2018-08-31T07:46:08.765Z,929.79
2018-08-31T07:47:08.654Z,929.82
2018-08-31T07:48:08.828Z,929.80
2018-08-31T07:49:08.698Z,929.82
2018-08-31T07:50:08.964Z,929.79
2018-08-31T07:51:08.704Z,929.80
2018-08-31T07:52:08.721Z,929.85
2018-08-31T07:53:08.852Z,929.84
2018-08-31T07:54:08.735Z,929.89
2018-08-31T07:55:08.931Z,929.91
2018-08-31T07:56:08.770Z,929.93
2018-08-31T07:57:08.785Z,929.94
2018-08-31T07:58:08.914Z,929.92
2018-08-31T07:59:08.806Z,929.96
2018-08-31T08:00:08.976Z,929.95
2018-08-31T08:01:08.948Z,929.93
2018-08-31T08:02:08.963Z,929.94
2018-08-31T08:03:08.981Z,929.94
2018-08-31T08:04:08.982Z,929.96
2018-08-31T08:05:09.143Z,929.96
2018-08-31T08:06:09.007Z,929.94
2018-08-31T08:07:09.017Z,929.95
2018-08-31T08:08:08.909Z,929.99
2018-08-31T08:09:08.924Z,929.95
2018-08-31T08:10:09.081Z,929.93
2018-08-31T08:11:08.962Z,929.90
2018-08-31T08:12:09.084Z,929.97
2018-08-31T08:13:08.970Z,929.94
2018-08-31T08:14:08.997Z,929.93
2018-08-31T08:15:09.143Z,929.91
2018-08-31T08:16:09.010Z,929.92
2018-08-31T08:17:09.013Z,929.99
2018-08-31T08:18:09.033Z,929.96
2018-08-31T08:19:09.162Z,929.95
2018-08-31T08:20:09.107Z,929.97
2018-08-31T08:21:09.196Z,929.96
2018-08-31T08:22:09.350Z,929.97
2018-08-31T08:23:09.089Z,929.96
2018-08-31T08:24:09.135Z,929.93
2018-08-31T08:25:09.121Z,929.97
2018-08-31T08:26:09.121Z,929.97
2018-08-31T08:27:09.278Z,929.97
2018-08-31T08:28:09.142Z,929.97
2018-08-31T08:29:09.286Z,929.95
2018-08-31T08:30:09.170Z,929.97
2018-08-31T08:31:09.171Z,930.00
2018-08-31T08:32:09.342Z,930.02
2018-08-31T08:33:09.203Z,930.06
2018-08-31T08:34:09.213Z,930.06
2018-08-31T08:35:09.243Z,930.08
2018-08-31T08:36:09.247Z,930.11
2018-08-31T08:37:09.537Z,930.12
2018-08-31T08:38:09.265Z,930.13
2018-08-31T08:39:09.285Z,930.14
2018-08-31T08:40:09.421Z,930.13
2018-08-31T08:41:09.306Z,930.15
2018-08-31T08:42:09.614Z,930.15
2018-08-31T08:43:09.448Z,930.11
2018-08-31T08:44:09.335Z,930.12
2018-08-31T08:45:09.352Z,930.12
2018-08-31T08:46:09.484Z,930.08
2018-08-31T08:47:09.646Z,930.07
2018-08-31T08:48:09.422Z,930.11
2018-08-31T08:49:09.398Z,930.11
2018-08-31T08:50:09.541Z,930.12
2018-08-31T08:51:09.416Z,930.11
2018-08-31T08:52:09.713Z,930.13
2018-08-31T08:53:09.445Z,930.16
2018-08-31T08:54:09.464Z,930.12
2018-08-31T08:55:09.482Z,930.16
2018-08-31T08:56:09.496Z,930.17
2018-08-31T08:57:09.542Z,930.12
2018-08-31T08:58:09.648Z,930.16
2018-08-31T08:59:09.512Z,930.17
2018-08-31T09:00:09.522Z,930.14
2018-08-31T09:01:09.661Z,930.19
2018-08-31T09:02:09.700Z,930.22
2018-08-31T09:03:09.554Z,930.24
2018-08-31T09:04:09.696Z,930.28
2018-08-31T09:05:09.713Z,930.31
2018-08-31T09:06:09.725Z,930.31
2018-08-31T09:07:09.767Z,930.30
2018-08-31T09:08:09.749Z,930.32
2018-08-31T09:09:09.639Z,930.33
2018-08-31T09:10:09.651Z,930.40
2018-08-31T09:11:09.787Z,930.37
2018-08-31T09:12:09.672Z,930.42
2018-08-31T09:13:09.831Z,930.39
2018-08-31T09:14:09.694Z,930.39
2018-08-31T09:15:09.832Z,930.37
2018-08-31T09:16:09.712Z,930.41
2018-08-31T09:17:09.731Z,930.42
2018-08-31T09:18:09.889Z,930.42
2018-08-31T09:19:09.874Z,930.49
2018-08-31T09:20:09.925Z,930.47
2018-08-31T09:21:09.902Z,930.47
2018-08-31T09:22:09.785Z,930.49
2018-08-31T09:23:09.846Z,930.47
2018-08-31T09:24:09.805Z,930.51
2018-08-31T09:25:09.849Z,930.52
2018-08-31T09:26:09.829Z,930.53
2018-08-31T09:27:10.117Z,930.54
2018-08-31T09:28:09.983Z,930.59
2018-08-31T09:29:09.880Z,930.62
2018-08-31T09:30:10.005Z,930.64
2018-08-31T09:31:09.890Z,930.61
2018-08-31T09:32:10.227Z,930.62
2018-08-31T09:33:09.920Z,930.63
2018-08-31T09:34:09.924Z,930.63
2018-08-31T09:35:10.068Z,930.65
2018-08-31T09:36:10.078Z,930.68
2018-08-31T09:37:10.243Z,930.70
2018-08-31T09:38:09.983Z,930.66
2018-08-31T09:39:10.110Z,930.76
2018-08-31T09:40:10.011Z,930.72
2018-08-31T09:41:10.140Z,930.78
2018-08-31T09:42:10.186Z,930.79
2018-08-31T09:43:10.042Z,930.80
2018-08-31T09:44:10.055Z,930.76
2018-08-31T09:45:10.062Z,930.76
2018-08-31T09:46:10.078Z,930.75
2018-08-31T09:47:10.362Z,930.75
2018-08-31T09:48:10.219Z,930.80
2018-08-31T09:49:10.231Z,930.82
2018-08-31T09:50:10.120Z,930.86
2018-08-31T09:51:10.261Z,930.84
2018-08-31T09:52:10.314Z,930.85
2018-08-31T09:53:10.282Z,930.84
2018-08-31T09:54:10.184Z,930.86
2018-08-31T09:55:10.314Z,930.83
2018-08-31T09:56:10.332Z,930.88
2018-08-31T09:57:10.335Z,930.88
2018-08-31T09:58:10.358Z,930.90
2018-08-31T09:59:10.259Z,930.86
2018-08-31T10:00:10.269Z,930.91
2018-08-31T10:01:10.395Z,930.91
2018-08-31T10:02:10.505Z,930.94
2018-08-31T10:03:10.424Z,930.93
2018-08-31T10:04:10.312Z,930.97
2018-08-31T10:05:10.449Z,930.96
2018-08-31T10:06:10.468Z,930.94
2018-08-31T10:07:10.780Z,930.98
2018-08-31T10:08:10.495Z,931.00
2018-08-31T10:09:10.509Z,930.99
2018-08-31T10:10:10.404Z,931.02
2018-08-31T10:11:10.436Z,931.03
2018-08-31T10:12:10.504Z,931.01
2018-08-31T10:13:10.583Z,931.06
2018-08-31T10:14:10.494Z,931.05
2018-08-31T10:15:10.614Z,931.05
2018-08-31T10:16:10.625Z,931.09
2018-08-31T10:17:10.717Z,931.09
2018-08-31T10:18:10.653Z,931.12
2018-08-31T10:19:10.551Z,931.09
2018-08-31T10:20:10.685Z,931.11
2018-08-31T10:21:10.706Z,931.10
2018-08-31T10:22:10.720Z,931.08
2018-08-31T10:23:10.841Z,931.10
2018-08-31T10:24:10.630Z,931.10
2018-08-31T10:25:10.775Z,931.13
2018-08-31T10:26:10.697Z,931.09
2018-08-31T10:27:10.696Z,931.12
2018-08-31T10:28:10.975Z,931.16
2018-08-31T10:29:10.710Z,931.19
2018-08-31T10:30:10.865Z,931.21
2018-08-31T10:31:10.879Z,931.19
2018-08-31T10:32:10.899Z,931.24
2018-08-31T10:33:10.899Z,931.21
2018-08-31T10:34:10.824Z,931.26
2018-08-31T10:35:10.823Z,931.25
2018-08-31T10:36:10.980Z,931.24
2018-08-31T10:37:10.905Z,931.27
2018-08-31T10:38:11.206Z,931.29
2018-08-31T10:39:10.912Z,931.26
2018-08-31T10:40:10.960Z,931.26
2018-08-31T10:41:11.065Z,931.33
2018-08-31T10:42:10.949Z,931.31
2018-08-31T10:43:11.033Z,931.32
2018-08-31T10:44:11.119Z,931.32
2018-08-31T10:45:11.025Z,931.31
2018-08-31T10:46:11.186Z,931.33
2018-08-31T10:47:11.184Z,931.34
2018-08-31T10:48:11.072Z,931.33
2018-08-31T10:49:11.218Z,931.37
2018-08-31T10:50:11.118Z,931.40
2018-08-31T10:51:11.395Z,931.43
2018-08-31T10:52:11.284Z,931.43
2018-08-31T10:53:11.192Z,931.45
2018-08-31T10:54:11.200Z,931.45
2018-08-31T10:55:11.228Z,931.47
2018-08-31T10:56:11.509Z,931.49
2018-08-31T10:57:11.267Z,931.49
2018-08-31T10:58:11.399Z,931.50
2018-08-31T10:59:11.418Z,931.50
2018-08-31T11:00:11.334Z,931.53
2018-08-31T11:01:11.508Z,931.51
2018-08-31T11:02:11.353Z,931.52
2018-08-31T11:03:11.539Z,931.52
2018-08-31T11:04:11.524Z,931.49
2018-08-31T11:05:11.546Z,931.52
2018-08-31T11:06:11.447Z,931.53
2018-08-31T11:07:11.462Z,931.49
2018-08-31T11:08:11.687Z,931.52
2018-08-31T11:09:11.497Z,931.60
2018-08-31T11:10:11.540Z,931.56
2018-08-31T11:11:11.661Z,931.56
2018-08-31T11:12:11.557Z,931.55
2018-08-31T11:13:11.987Z,931.59
2018-08-31T11:14:11.721Z,931.61
2018-08-31T11:15:11.808Z,931.56
2018-08-31T11:16:11.630Z,931.64
2018-08-31T11:17:11.667Z,931.64
2018-08-31T11:18:11.723Z,931.70
2018-08-31T11:19:11.825Z,931.72
2018-08-31T11:20:12.044Z,931.77
2018-08-31T11:21:11.862Z,931.76
2018-08-31T11:22:11.778Z,931.78
2018-08-31T11:23:11.819Z,931.78
2018-08-31T11:24:11.931Z,931.80
2018-08-31T11:25:12.195Z,931.78
2018-08-31T11:26:11.851Z,931.80
2018-08-31T11:27:11.986Z,931.69
2018-08-31T11:28:11.897Z,931.83
2018-08-31T11:29:11.918Z,931.71
2018-08-31T11:30:12.148Z,931.71
2018-08-31T11:31:12.067Z,931.83
2018-08-31T11:32:11.964Z,931.84
2018-08-31T11:33:12.110Z,931.80
2018-08-31T11:34:12.024Z,931.79
2018-08-31T11:35:12.244Z,931.70
2018-08-31T11:36:12.041Z,931.76
2018-08-31T11:37:12.195Z,931.78
2018-08-31T11:38:12.097Z,931.79
2018-08-31T11:39:12.129Z,931.81
2018-08-31T11:40:12.557Z,931.79
2018-08-31T11:41:12.281Z,931.79
2018-08-31T11:42:12.176Z,931.80
2018-08-31T11:43:12.266Z,931.81
2018-08-31T11:44:12.344Z,931.79
2018-08-31T11:45:12.385Z,931.78
2018-08-31T11:46:12.391Z,931.72
2018-08-31T11:47:12.411Z,931.75
2018-08-31T11:48:12.334Z,931.73
2018-08-31T11:49:12.451Z,931.77
2018-08-31T11:50:12.491Z,931.75
2018-08-31T11:51:12.502Z,931.73
2018-08-31T11:52:12.410Z,931.70
2018-08-31T11:53:12.423Z,931.76
2018-08-31T11:54:12.421Z,931.80
2018-08-31T11:55:12.545Z,931.75
2018-08-31T11:56:12.474Z,931.78
2018-08-31T11:57:12.638Z,931.84
2018-08-31T11:58:12.640Z,931.79
2018-08-31T11:59:12.543Z,931.80
2018-08-31T12:00:12.558Z,931.83
2018-08-31T12:01:12.605Z,931.78
2018-08-31T12:02:12.694Z,931.84
2018-08-31T12:03:12.634Z,931.83
2018-08-31T12:04:12.772Z,931.82
2018-08-31T12:05:12.665Z,931.79
2018-08-31T12:06:12.683Z,931.81
2018-08-31T12:07:12.813Z,931.83
2018-08-31T12:08:12.853Z,931.82
2018-08-31T12:09:12.869Z,931.86
2018-08-31T12:10:12.888Z,931.89
2018-08-31T12:11:12.904Z,931.79
2018-08-31T12:12:13.023Z,931.87
2018-08-31T12:13:12.947Z,931.84
2018-08-31T12:14:12.975Z,931.85
2018-08-31T12:15:12.982Z,931.75
2018-08-31T12:16:13.018Z,931.83
2018-08-31T12:17:13.325Z,931.82
2018-08-31T12:18:13.044Z,931.87
2018-08-31T12:19:13.060Z,931.86
2018-08-31T12:20:12.966Z,931.85
2018-08-31T12:21:12.984Z,931.82
2018-08-31T12:22:13.249Z,931.88
2018-08-31T12:23:13.029Z,931.90
2018-08-31T12:24:13.044Z,931.93
2018-08-31T12:25:13.180Z,931.90
2018-08-31T12:26:13.073Z,931.88
2018-08-31T12:27:13.340Z,931.90
2018-08-31T12:28:13.099Z,931.92
2018-08-31T12:29:13.131Z,931.85